Welchs Creek, Kentucky
Current Conditions -  °F | °C
As of 2:53 PM on Wednesday 26 Nov 2014 (Local Time) from KBWG Reporting Station
Clear Clear  
Wind Chill: 44°   Ceiling: Unl
Heat Index: 47°   Visibility: 10mi
Dew Point: 21°   Wind: 7mph
Humidity: 36%   Direction: 190°S
Pressure: 30.03"   Gusts: NA
Location:  37.24°N, 86.6°W
Report Text: KBWG 262053Z AUTO 19006KT 10SM CLR 08/M06 A3003 RMK AO2 SLP172 T00831061 56025
Loading
Personal Weather Stations






























Interactive Weather Map New forecast layout! Learn more

10-Day Weather Forecast

Advertisements
Track Severe Weather on mobile